WEATHER DATA

YESTERDAY
Time Temp. Dewp. Hum. Wind dir Wind speed Wind gust Bar. 1h Prec. 24h Prec.
00:19 4.5 2.8 89 338 0.6 3.1 1008.9 0.4040 0.1000
00:29 4.3 2.7 89 329 0.8 2.2 1009 0.2020 0.1000
00:40 4.2 2.6 89 270 1.1 3.3 1009.4 0.2020 0.1000
00:50 4 2.4 89 345 0.8 2.5 1009.5 0.2020 0.1000
01:00 3.9 2.3 89 327 0.6 1.9 1009.5 0.1010 0.1000
01:09 3.8 2.2 89 270 0.6 2.2 1009.6 0.1010 0.1000
01:20 3.7 2.2 90 37 0.6 1.1 1009.7 0.0000 0.1000
01:30 3.6 2.1 90 195 0.6 1.7 1009.9 0.0000 0.1000
01:40 3.6 2.1 90 202 0.8 3.1 1010 0.0000 0.1000
01:50 3.6 2.3 91 212 0.8 4.2 1010.1 0.0000 0.1000
02:00 3.6 2.3 91 209 0.6 2.5 1010.4 0.0000 0.1000
02:10 3.7 2.4 91 156 0.6 1.9 1010.4 0.0000 0.1000
02:20 3.7 2.4 91 212 0.8 1.9 1010.6 0.0000 0.1000
02:30 3.7 2.4 91 195 0.6 2.5 1010.8 0.0000 0.1000
02:40 3.7 2.4 91 26 0.6 1.7 1011 0.0000 0.1000
02:50 3.6 2.3 91 211 1.1 3.6 1011.1 0.2020 0.3000
03:00 3.5 2 90 211 0.8 1.9 1011.2 0.2020 0.3000
03:09 3.4 1.9 90 212 1.1 3.3 1011.3 0.2020 0.3000
03:19 3.4 1.9 90 255 1.1 5.6 1011.4 0.2020 0.3000
03:30 3.4 1.9 90 216 0.8 2.2 1011.5 0.2020 0.3000
03:49 3.3 1.8 90 215 0.8 3.3 1011.9 0.0000 0.3000
03:59 3.2 1.7 90 216 0.6 2.2 1011.9 0.0000 0.3000
04:10 3.3 1.8 90 216 0.6 1.4 1012.1 0.0000 0.3000
04:20 3.1 1.6 90 207 0.8 4.7 1012.3 0.0000 0.3000
04:30 3.1 1.5 89 217 1.1 3.1 1012.5 0.0000 0.3000
05:00 3.4 1.6 88 232 1.1 3.1 1012.9 0.0000 0.3000
05:10 3.3 1.5 88 220 0.6 1.7 1013 0.0000 0.3000
05:20 3.1 1.3 88 228 0.8 2.2 1013.2 0.0000 0.3000
05:30 3.1 1.3 88 219 0.6 4.4 1013.3 0.0000 0.3000
05:40 3.1 1.5 89 220 0.8 2.5 1012.9 0.0000 0.3000
05:51 3.1 1.5 89 215 0.8 4.2 1013.1 0.0000 0.3000
06:00 3.3 1.7 89 213 0.8 4.2 1013.1 0.0000 0.3000
06:10 3.3 1.7 89 216 0.6 1.9 1013.3 0.0000 0.3000
06:20 3.4 1.8 89 209 0.8 3.3 1013.5 0.0000 0.3000
06:31 3.3 1.7 89 281 0.8 2.2 1013.5 0.1010 0.4000
06:41 3.1 1.5 89 225 0.6 1.7 1013.6 0.1010 0.4000
06:50 3.1 1.5 89 225 0.6 3.1 1013.6 0.1010 0.4000
07:01 3.1 1.6 90 225 0.8 2.2 1013.8 0.1010 0.4000
07:10 3.1 1.5 89 303 0.8 3.3 1013.9 0.1010 0.4000
07:20 3.1 1.5 89 300 0.8 3.3 1013.9 0.1010 0.4000
07:30 3.1 1.3 88 206 0.8 3.9 1014.1 0.0000 0.4000
07:40 3.1 1.3 88 225 0.8 2.5 1014 0.0000 0.4000
07:50 3.1 1.1 87 222 1.1 3.9 1014.1 0.0000 0.4000
08:00 3.1 1.1 87 237 0.8 3.3 1014.4 0.0000 0.4000
08:11 3.1 1.1 87 341 0.8 3.1 1014.6 0.0000 0.4000
08:21 3.1 1.1 87 270 0.8 4.4 1014.9 0.0000 0.4000
08:30 3.1 1.1 87 225 0.8 3.6 1014.7 0.0000 0.4000
08:41 3.1 1.1 87 240 0.8 3.1 1015 0.0000 0.4000
08:51 3.1 1.1 87 165 0.8 2.2 1015 0.0000 0.4000
09:00 3.1 1 86 215 1.4 4.7 1015.1 0.0000 0.4000
09:10 3.1 1 86 11 0.8 2.5 1015.4 0.0000 0.4000
09:21 3.1 1 86 328 1.1 3.6 1015.6 0.0000 0.4000
09:31 3.1 1 86 288 0.8 3.1 1015.8 0.0000 0.4000
09:40 3.2 1.1 86 225 0.8 2.5 1015.5 0.0000 0.4000
09:51 3.4 1.3 86 270 0.6 1.7 1015.7 0.0000 0.4000
10:01 3.5 1.4 86 225 1.1 3.9 1015.8 0.0000 0.4000
10:11 3.5 1.4 86 233 0.8 4.4 1015.7 0.0000 0.4000
10:21 3.5 1.5 87 220 1.1 2.5 1015.8 0.0000 0.4000
10:31 3.6 1.6 87 195 0.6 1.7 1015.9 0.0000 0.4000
10:32 3.6 1.6 87 212 0.8 5 1015.9 0.0000 0.4000
10:43 3.7 1.6 86 228 1.1 4.4 1016 0.0000 0.4000
10:53 3.8 1.5 85 18 0.8 4.2 1016 0.0000 0.4000
11:03 4 1.2 82 238 1.4 5.8 1016.1 0.0000 0.4000
11:13 4 1.2 82 253 1.4 5.6 1016.2 0.0000 0.4000
11:23 4.1 1.5 83 337 0.8 3.6 1016.2 0.0000 0.4000
11:33 4.2 1.7 84 206 0.8 2.2 1016.2 0.0000 0.4000
11:43 4.5 1.7 82 220 0.8 3.3 1016.2 0.0000 0.4000
11:54 4.6 1.8 82 216 0.8 2.5 1016.1 0.0000 0.4000
12:03 4.7 1.7 81 225 1.1 3.6 1016.1 0.0000 0.4000
12:13 4.8 1.1 77 225 1.1 3.1 1016.1 0.0000 0.4000
12:24 4.7 1 77 218 1.1 4.4 1016.2 0.0000 0.4000
12:34 4.6 0.7 76 217 1.4 3.9 1016.3 0.0000 0.4000
12:43 4.6 0.9 77 230 0.8 3.3 1016.1 0.0000 0.4000
12:53 4.7 0.7 75 233 1.1 4.4 1016.1 0.0000 0.4000
13:04 4.7 0.8 76 254 1.1 3.9 1016.1 0.0000 0.4000
13:14 4.5 1 78 29 0.6 3.9 1016.2 0.0000 0.4000
13:22 4.5 1.2 79 253 1.1 6.4 1016.3 0.0000 0.4000
13:33 4.6 1.1 78 228 1.1 5.3 1016.2 0.0000 0.4000
13:43 4.8 0.9 76 258 1.1 5 1015.9 0.0000 0.4000
13:52 4.7 0.8 76 230 1.4 4.4 1016.1 0.0000 0.4000
14:03 4.8 0.8 75 281 0.8 2.5 1016.1 0.0000 0.4000
14:13 4.7 0.8 76 231 0.8 3.3 1016 0.0000 0.4000
14:23 4.8 1.1 77 215 0.8 2.5 1016 0.0000 0.4000
14:33 4.7 1 77 219 1.1 3.9 1016.1 0.0000 0.4000
14:43 4.5 1 78 223 0.8 3.6 1016.1 0.0000 0.4000
14:52 4.5 1.2 79 218 1.4 6.7 1015.9 0.0000 0.4000
15:02 4.5 1.2 79 226 1.1 3.9 1016.1 0.0000 0.4000
15:12 4.4 1.1 79 212 0.8 3.1 1016.1 0.0000 0.4000
15:22 4.2 1.1 80 225 0.3 1.1 1016.1 0.0000 0.4000
15:32 4.1 1.1 81 228 0.6 5 1016.4 0.0000 0.4000
15:43 3.7 0.9 82 251 0.8 2.2 1016.5 0.1010 0.5000
15:53 3.4 1 84 315 0.3 1.4 1016.4 0.1010 0.5000
16:03 3.1 0.8 85 229 0.3 1.4 1016.5 0.1010 0.5000
16:13 3.1 1 86 341 0.3 0.6 1016.3 0.1010 0.5000
16:23 3.3 1.2 86 225 0.6 2.2 1016.1 0.1010 0.5000
16:33 3.3 1.2 86 222 0.8 1.9 1016.3 0.2020 0.6000
16:43 3.2 1.1 86 227 0.6 2.5 1016.4 0.1010 0.6000
16:53 3.1 1 86 221 1.1 3.1 1016.6 0.1010 0.6000
17:03 3.1 1.1 87 220 0.8 2.5 1016.6 0.3030 0.8000
17:18 2.9 1 87 230 0.6 1.1 1016.5 0.3030 0.8000
17:28 2.9 1.1 88 199 0.6 1.9 1016.5 0.2020 0.8000
17:38 2.8 1 88 210 0.3 2.2 1016.5 0.2020 0.8000
17:48 2.7 0.9 88 207 0.6 2.2 1016.6 0.2020 0.8000
17:58 2.6 0.8 88 210 0.6 1.4 1016.4 0.1010 0.8000
18:08 2.5 0.7 88 200 0.3 1.1 1016.5 0.0000 0.8000
18:18 2.4 0.6 88 188 0.6 1.1 1016.4 0.0000 0.8000
18:28 2.3 0.7 89 198 0.3 1.1 1016.4 0.0000 0.8000
18:39 2.3 0.7 89 190 0.3 0.6 1016.4 0.0000 0.8000
18:48 2.3 0.7 89 201 0.3 1.1 1016.3 0.0000 0.8000
18:58 2.2 0.6 89 206 0.3 3.1 1016.4 0.0000 0.8000
19:09 2.1 0.5 89 212 0.3 1.1 1016.6 0.0000 0.8000
19:19 2.1 0.5 89 200 0.3 0.8 1016.6 0.0000 0.8000
19:28 2.2 0.7 90 177 0.3 0.8 1016.5 0.0000 0.8000
19:38 2.3 0.8 90 167 0.3 0.6 1016.6 0.0000 0.8000
19:49 2.4 0.9 90 180 0.3 0.6 1016.6 0.0000 0.8000
19:59 2.4 0.9 90 198 0.6 1.1 1016.6 0.0000 0.8000
20:19 2.6 1 89 188 0.6 1.1 1016.8 0.0000 0.8000
20:29 2.6 1 89 204 0.3 1.1 1016.7 0.0000 0.8000
20:39 2.5 0.7 88 205 0.8 1.9 1016.7 0.0000 0.8000
20:49 2.5 0.7 88 210 0.6 1.9 1016.8 0.0000 0.8000
20:54 2.5 0.9 89 207 0.3 0.8 1017.1 0.0000 0.8000
21:04 2.5 0.7 88 210 0.6 1.4 1016.8 0.0000 0.8000
21:14 2.5 0.7 88 213 0.6 1.7 1016.8 0.0000 0.8000
21:24 2.5 0.7 88 207 0.6 1.9 1016.6 0.0000 0.8000
21:35 2.5 0.9 89 207 0.6 1.4 1016.5 0.0000 0.8000
21:44 2.4 0.8 89 207 0.6 1.9 1016.7 0.0000 0.8000
21:54 2.4 0.6 88 212 0.8 2.5 1016.7 0.0000 0.8000
22:05 2.4 0.6 88 187 0.3 1.7 1016.5 0.0000 0.8000
22:15 2.4 0.6 88 203 0.6 1.1 1016.5 0.0000 0.8000
22:24 2.4 0.6 88 212 0.8 3.1 1016.6 0.0000 0.8000
22:34 2.4 0.6 88 210 0.6 1.7 1016.4 0.0000 0.8000
22:45 2.4 0.6 88 206 0.6 1.4 1016.6 0.0000 0.8000
22:55 2.4 0.6 88 205 0.6 1.9 1016.4 0.0000 0.8000
23:15 2.4 0.6 88 215 0.6 2.2 1016.3 0.0000 0.8000
23:25 2.4 0.6 88 210 0.6 1.4 1016.4 0.0000 0.8000
23:35 2.5 0.7 88 201 0.6 1.7 1016.6 0.0000 0.8000
23:45 2.5 0.7 88 211 0.8 1.7 1016.3 0.0000 0.8000
23:55 2.5 0.7 88 225 0.6 1.9 1016.4 0.0000 0.8000

DAY STATISTIC

2018-12-10
TEMPERATURE
AVERAGE
3.4
HIGH
4.8
12:13
LOW
2.1
19:09
PRESSURE
AVERAGE
1014.8
HIGH
1017.1
20:54
LOW
1008.9
00:19
DEWPOINT
AVERAGE
1.3
HIGH
2.8
00:19
LOW
0.5
19:09
HUMIDITY
AVERAGE
86
HIGH
91
01:50
LOW
75
12:53
WIND SPEED
AVERAGE
0.7
HIGH
1.4
09:00
WIND GUST
AVERAGE
2.7
HIGH
6.7
14:52
WIND DIRECTION
PREVAILING
SW
63%
N
4.3
NE
2.2
E
0.0
SE
0.7
S
15.2
SW
63.0
W
9.4
NW
5.1
PRECIPITATION
RAIN HOUR
0.4
RAIN DAY
0.8
TEMPERATURE (°C)
LOW
2.1
HIGH
4.8
AVERAGE
3.4
PRESSURE (hpa)
LOW
1008.9
HIGH
1017.1
AVERAGE
1014.8
DEVICE